createdAt,value
2023-03-01T00:01:32.489Z,55.91
2023-03-01T00:04:01.091Z,59.23
2023-03-01T00:06:29.322Z,58.65
2023-03-01T00:08:57.637Z,59.00
2023-03-01T00:11:28.542Z,59.09
2023-03-01T00:13:58.970Z,59.89
2023-03-01T00:16:30.905Z,58.19
2023-03-01T00:18:59.441Z,58.57
2023-03-01T00:21:28.439Z,58.65
2023-03-01T00:23:56.853Z,57.77
2023-03-01T00:26:26.333Z,58.50
2023-03-01T00:28:56.697Z,57.84
2023-03-01T00:31:26.729Z,57.91
2023-03-01T00:33:59.310Z,58.23
2023-03-01T00:36:30.943Z,56.57
2023-03-01T00:38:59.587Z,56.31
2023-03-01T00:41:27.943Z,56.78
2023-03-01T00:43:56.232Z,57.16
2023-03-01T00:46:27.364Z,56.81
2023-03-01T00:48:55.570Z,56.20
2023-03-01T00:51:26.761Z,56.61
2023-03-01T00:53:57.945Z,56.05
2023-03-01T00:56:26.959Z,56.40
2023-03-01T00:58:55.328Z,54.89
2023-03-01T01:01:27.238Z,55.86
2023-03-01T01:03:59.495Z,56.13
2023-03-01T01:06:36.658Z,56.60
2023-03-01T01:09:07.813Z,56.67
2023-03-01T01:11:37.644Z,56.26
2023-03-01T01:14:06.090Z,55.50
2023-03-01T01:16:34.553Z,56.59
2023-03-01T01:19:03.180Z,55.45
2023-03-01T01:21:31.758Z,55.42
2023-03-01T01:23:59.999Z,55.31
2023-03-01T01:26:33.803Z,55.68
2023-03-01T01:29:05.041Z,55.15
2023-03-01T01:31:34.138Z,55.60
2023-03-01T01:34:03.973Z,56.29
2023-03-01T01:36:34.314Z,57.26
2023-03-01T01:39:02.878Z,56.18
2023-03-01T01:41:31.725Z,56.73
2023-03-01T01:44:24.658Z,56.79
2023-03-01T01:47:05.610Z,56.59
2023-03-01T01:49:37.751Z,57.34
2023-03-01T01:52:17.989Z,56.82
2023-03-01T01:54:55.108Z,56.72
2023-03-01T01:57:45.082Z,57.40
2023-03-01T02:00:22.094Z,55.56
2023-03-01T02:02:56.188Z,56.28
2023-03-01T02:05:42.043Z,57.62
2023-03-01T02:08:12.710Z,57.54
2023-03-01T02:10:41.990Z,57.28
2023-03-01T02:13:10.957Z,57.88
2023-03-01T02:15:40.029Z,58.91
2023-03-01T02:18:09.552Z,59.73
2023-03-01T02:20:59.959Z,61.36
2023-03-01T02:23:29.450Z,60.82
2023-03-01T02:25:59.064Z,61.19
2023-03-01T02:28:28.289Z,62.23
2023-03-01T02:31:15.046Z,61.84
2023-03-01T02:33:43.480Z,64.35
2023-03-01T02:36:18.259Z,60.31
2023-03-01T02:38:47.007Z,63.65
2023-03-01T02:41:17.899Z,61.25
2023-03-01T02:43:46.698Z,59.83
2023-03-01T02:46:18.410Z,58.72
2023-03-01T02:48:49.738Z,59.16
2023-03-01T02:51:45.878Z,61.40
2023-03-01T02:54:32.553Z,61.33
2023-03-01T02:57:01.101Z,59.53
2023-03-01T02:59:40.538Z,59.87
2023-03-01T03:02:21.860Z,58.90
2023-03-01T03:04:50.209Z,58.92
2023-03-01T03:07:18.248Z,59.06
2023-03-01T03:09:46.446Z,58.89
2023-03-01T03:12:14.940Z,59.41
2023-03-01T03:14:43.411Z,58.83
2023-03-01T03:17:11.369Z,59.62
2023-03-01T03:19:39.660Z,60.26
2023-03-01T03:22:10.170Z,59.67
2023-03-01T03:24:39.470Z,59.30
2023-03-01T03:27:08.458Z,60.50
2023-03-01T03:29:36.469Z,59.51
2023-03-01T03:32:04.649Z,58.80
2023-03-01T03:34:33.028Z,59.88
2023-03-01T03:37:00.985Z,59.16
2023-03-01T03:39:30.197Z,59.60
2023-03-01T03:41:58.551Z,59.64
2023-03-01T03:44:26.512Z,60.65
2023-03-01T03:46:54.520Z,60.52
2023-03-01T03:49:22.876Z,59.97
2023-03-01T03:51:50.906Z,59.49
2023-03-01T03:54:18.967Z,58.17
2023-03-01T03:56:47.212Z,58.51
2023-03-01T03:59:15.264Z,60.46
2023-03-01T04:01:43.309Z,60.90
2023-03-01T04:04:11.717Z,61.16
2023-03-01T04:06:40.143Z,60.44
2023-03-01T04:09:08.024Z,61.05
2023-03-01T04:11:36.464Z,60.90
2023-03-01T04:14:05.651Z,60.91
2023-03-01T04:16:34.106Z,60.41
2023-03-01T04:19:02.714Z,59.34
2023-03-01T04:21:30.896Z,60.02
2023-03-01T04:23:58.978Z,60.48
2023-03-01T04:26:28.688Z,60.46
2023-03-01T04:28:57.107Z,59.65
2023-03-01T04:31:25.093Z,60.17
2023-03-01T04:33:55.359Z,60.68
2023-03-01T04:36:28.051Z,61.15
2023-03-01T04:38:57.303Z,60.37
2023-03-01T04:41:26.287Z,60.24
2023-03-01T04:43:54.408Z,59.62
2023-03-01T04:46:23.395Z,59.81
2023-03-01T04:48:51.652Z,60.16
2023-03-01T04:51:19.755Z,59.67
2023-03-01T04:53:48.286Z,59.98
2023-03-01T04:56:17.091Z,61.11
2023-03-01T04:58:45.983Z,61.18
2023-03-01T05:01:16.735Z,59.58
2023-03-01T05:03:50.078Z,58.96
2023-03-01T05:06:19.726Z,59.47
2023-03-01T05:08:47.712Z,59.68
2023-03-01T05:11:15.690Z,58.85
2023-03-01T05:13:44.507Z,58.86
2023-03-01T05:16:12.928Z,59.01
2023-03-01T05:18:42.138Z,59.71
2023-03-01T05:21:14.229Z,58.52
2023-03-01T05:23:42.364Z,58.21
2023-03-01T05:26:25.857Z,58.51
2023-03-01T05:29:00.366Z,59.50
2023-03-01T05:31:29.582Z,57.34
2023-03-01T05:33:57.682Z,57.52
2023-03-01T05:36:25.643Z,58.60
2023-03-01T05:38:53.966Z,58.84
2023-03-01T05:41:22.029Z,58.71
2023-03-01T05:43:49.967Z,58.92
2023-03-01T05:46:18.490Z,59.18
2023-03-01T05:48:46.595Z,59.18
2023-03-01T05:51:14.587Z,58.36
2023-03-01T05:53:43.054Z,58.24
2023-03-01T05:56:12.026Z,58.88
2023-03-01T05:58:40.037Z,58.39
2023-03-01T06:01:13.530Z,59.39
2023-03-01T06:03:42.053Z,59.17
2023-03-01T06:06:09.989Z,58.51
2023-03-01T06:08:38.040Z,59.40
2023-03-01T06:11:06.608Z,59.83
2023-03-01T06:13:34.720Z,59.90
2023-03-01T06:16:06.175Z,59.26
2023-03-01T06:18:34.554Z,57.77
2023-03-01T06:21:02.615Z,58.57
2023-03-01T06:23:30.719Z,59.37
2023-03-01T06:25:59.241Z,59.75
2023-03-01T06:28:27.480Z,59.50
2023-03-01T06:30:55.518Z,59.00
2023-03-01T06:33:25.537Z,58.79
2023-03-01T06:35:57.438Z,58.31
2023-03-01T06:38:25.869Z,58.53
2023-03-01T06:40:57.765Z,58.63
2023-03-01T06:43:26.199Z,57.85
2023-03-01T06:45:54.222Z,57.72
2023-03-01T06:48:22.203Z,57.53
2023-03-01T06:50:50.582Z,57.55
2023-03-01T06:53:18.642Z,58.04
2023-03-01T06:55:46.708Z,57.26
2023-03-01T06:58:15.443Z,58.86
2023-03-01T07:00:44.869Z,58.98
2023-03-01T07:03:12.872Z,57.48
2023-03-01T07:05:41.348Z,58.01
2023-03-01T07:08:10.507Z,57.91
2023-03-01T07:10:38.676Z,57.81
2023-03-01T07:13:08.520Z,58.37
2023-03-01T07:15:36.836Z,58.93
2023-03-01T07:18:05.188Z,57.70
2023-03-01T07:20:33.620Z,55.96
2023-03-01T07:23:01.622Z,56.91
2023-03-01T07:25:29.728Z,56.69
2023-03-01T07:27:58.059Z,55.74
2023-03-01T07:30:29.907Z,56.61
2023-03-01T07:32:59.579Z,55.76
2023-03-01T07:35:28.221Z,54.77
2023-03-01T07:37:56.285Z,57.25
2023-03-01T07:40:25.123Z,56.61
2023-03-01T07:42:59.879Z,55.34
2023-03-01T07:45:29.084Z,54.91
2023-03-01T07:47:58.089Z,55.69
2023-03-01T07:50:26.459Z,56.00
2023-03-01T07:52:54.803Z,56.43
2023-03-01T07:55:22.936Z,55.68
2023-03-01T07:57:50.984Z,55.63
2023-03-01T08:00:20.224Z,54.24
2023-03-01T08:02:51.015Z,55.09
2023-03-01T08:05:20.121Z,55.40
2023-03-01T08:07:48.116Z,56.10
2023-03-01T08:10:18.643Z,54.39
2023-03-01T08:12:46.596Z,54.19
2023-03-01T08:15:14.594Z,54.41
2023-03-01T08:17:43.108Z,54.77
2023-03-01T08:20:13.716Z,53.73
2023-03-01T08:22:42.201Z,55.15
2023-03-01T08:25:10.602Z,54.75
2023-03-01T08:27:40.281Z,53.70
2023-03-01T08:30:09.396Z,51.95
2023-03-01T08:32:39.443Z,51.10
2023-03-01T08:35:07.983Z,51.86
2023-03-01T08:37:36.372Z,52.76
2023-03-01T08:40:08.611Z,51.67
2023-03-01T08:42:38.159Z,50.20
2023-03-01T08:45:06.643Z,50.65
2023-03-01T08:47:34.861Z,52.04
2023-03-01T08:50:04.311Z,51.48
2023-03-01T08:52:33.899Z,49.53
2023-03-01T08:55:02.768Z,50.72
2023-03-01T08:57:31.239Z,50.87
2023-03-01T08:59:59.886Z,50.04
2023-03-01T09:02:30.182Z,50.21
2023-03-01T09:04:58.504Z,49.42
2023-03-01T09:07:29.572Z,50.67
2023-03-01T09:09:57.757Z,51.26
2023-03-01T09:12:26.395Z,53.08
2023-03-01T09:14:54.503Z,50.03
2023-03-01T09:17:24.624Z,49.06
2023-03-01T09:19:54.699Z,48.13
2023-03-01T09:22:22.783Z,49.68
2023-03-01T09:24:50.843Z,47.97
2023-03-01T09:27:20.895Z,47.81
2023-03-01T09:29:48.857Z,48.99
2023-03-01T09:32:17.102Z,49.12
2023-03-01T09:35:04.454Z,48.20
2023-03-01T09:37:38.666Z,48.58
2023-03-01T09:40:09.051Z,46.88
2023-03-01T09:42:39.738Z,48.12
2023-03-01T09:45:13.500Z,45.08
2023-03-01T09:47:42.547Z,45.38
2023-03-01T09:50:17.700Z,43.72
2023-03-01T09:52:57.909Z,42.26
2023-03-01T09:55:45.039Z,45.20
2023-03-01T09:58:44.319Z,43.39
2023-03-01T10:01:36.066Z,42.38
2023-03-01T10:04:20.057Z,42.43
2023-03-01T10:07:07.798Z,42.13
2023-03-01T10:09:39.218Z,42.11
2023-03-01T10:12:16.239Z,40.70
2023-03-01T10:15:14.254Z,43.18
2023-03-01T10:17:54.211Z,40.33
2023-03-01T10:20:29.737Z,41.72
2023-03-01T10:22:57.849Z,40.19
2023-03-01T10:25:38.459Z,40.76
2023-03-01T10:28:14.110Z,39.72
2023-03-01T10:30:45.153Z,37.17
2023-03-01T10:33:23.090Z,37.16
2023-03-01T10:35:52.190Z,36.21
2023-03-01T10:38:21.685Z,35.61
2023-03-01T10:41:08.402Z,36.20
2023-03-01T10:43:54.912Z,36.36
2023-03-01T10:46:33.680Z,37.74
2023-03-01T10:49:24.276Z,37.72
2023-03-01T10:51:53.738Z,36.97
2023-03-01T10:54:29.629Z,37.96
2023-03-01T10:57:03.886Z,38.98
2023-03-01T10:59:32.418Z,40.33
2023-03-01T11:02:47.876Z,39.57
2023-03-01T11:05:25.172Z,39.08
2023-03-01T11:07:59.777Z,38.83
2023-03-01T11:10:34.046Z,38.59
2023-03-01T11:13:18.811Z,38.98
2023-03-01T11:16:09.315Z,39.21
2023-03-01T11:18:47.786Z,38.72
2023-03-01T11:21:18.802Z,38.21
2023-03-01T11:23:48.317Z,38.77
2023-03-01T11:26:19.757Z,40.48
2023-03-01T11:28:56.742Z,41.85
2023-03-01T11:31:25.947Z,42.64
2023-03-01T11:33:59.514Z,42.41
2023-03-01T11:36:40.155Z,40.43
2023-03-01T11:39:20.298Z,41.67
2023-03-01T11:41:53.460Z,43.05
2023-03-01T11:44:29.765Z,42.71
2023-03-01T11:47:19.022Z,41.37
2023-03-01T11:49:56.125Z,43.45
2023-03-01T11:52:52.924Z,44.37
2023-03-01T11:56:06.246Z,42.60
2023-03-01T11:59:05.431Z,43.93
2023-03-01T12:01:56.676Z,42.97
2023-03-01T12:05:00.895Z,43.75
2023-03-01T12:07:50.867Z,43.93
2023-03-01T12:10:29.260Z,45.29
2023-03-01T12:13:25.465Z,43.81
2023-03-01T12:16:12.752Z,44.21
2023-03-01T12:18:50.906Z,44.88
2023-03-01T12:21:34.478Z,43.23
2023-03-01T12:24:31.887Z,44.86
2023-03-01T12:27:38.923Z,44.72
2023-03-01T12:30:29.838Z,43.89
2023-03-01T12:33:14.895Z,44.36
2023-03-01T12:35:51.776Z,42.85
2023-03-01T12:38:44.259Z,44.97
2023-03-01T12:41:15.602Z,42.43
2023-03-01T12:43:59.948Z,40.46
2023-03-01T12:46:53.910Z,40.18
2023-03-01T12:49:50.908Z,41.18
2023-03-01T12:52:24.557Z,42.14
2023-03-01T12:54:56.907Z,41.13
2023-03-01T12:57:41.940Z,42.96
2023-03-01T13:00:29.950Z,43.61
2023-03-01T13:03:36.955Z,41.49
2023-03-01T13:06:24.166Z,41.54
2023-03-01T13:09:18.916Z,40.81
2023-03-01T13:11:47.378Z,43.04
2023-03-01T13:14:24.959Z,42.23
2023-03-01T13:16:56.579Z,41.69
2023-03-01T13:19:26.773Z,41.87
2023-03-01T13:21:56.085Z,42.32
2023-03-01T13:24:36.311Z,40.39
2023-03-01T13:27:07.764Z,41.10
2023-03-01T13:30:07.894Z,39.69
2023-03-01T13:32:44.345Z,40.31
2023-03-01T13:35:16.215Z,37.97
2023-03-01T13:37:47.086Z,38.75
2023-03-01T13:40:20.605Z,39.62
2023-03-01T13:43:03.134Z,39.00
2023-03-01T13:45:40.045Z,41.78
2023-03-01T13:48:13.916Z,43.08
2023-03-01T13:50:49.424Z,42.10
2023-03-01T13:53:20.941Z,38.18
2023-03-01T13:56:29.067Z,38.22
2023-03-01T13:59:07.458Z,38.61
2023-03-01T14:01:38.938Z,39.05
2023-03-01T14:04:32.489Z,40.64
2023-03-01T14:07:22.917Z,39.77
2023-03-01T14:09:57.781Z,40.20
2023-03-01T14:12:48.693Z,38.99
2023-03-01T14:15:35.363Z,39.50
2023-03-01T14:18:33.956Z,39.27
2023-03-01T14:21:11.220Z,39.86
2023-03-01T14:23:41.430Z,39.47
2023-03-01T14:26:10.241Z,40.39
2023-03-01T14:28:40.141Z,39.78
2023-03-01T14:31:38.464Z,40.75
2023-03-01T14:34:22.208Z,40.58
2023-03-01T14:36:50.822Z,42.72
2023-03-01T14:39:26.809Z,42.55
2023-03-01T14:41:57.432Z,42.70
2023-03-01T14:44:27.288Z,41.88
2023-03-01T14:46:57.260Z,40.79
2023-03-01T14:49:31.438Z,39.59
2023-03-01T14:52:06.952Z,39.99
2023-03-01T14:54:54.720Z,40.44
2023-03-01T14:57:26.551Z,39.97
2023-03-01T15:00:01.644Z,40.97
2023-03-01T15:02:31.597Z,41.03
2023-03-01T15:05:02.680Z,42.20
2023-03-01T15:07:33.749Z,40.52
2023-03-01T15:10:03.504Z,40.54
2023-03-01T15:12:38.090Z,41.29
2023-03-01T15:15:33.425Z,40.93
2023-03-01T15:18:09.051Z,41.72
2023-03-01T15:20:38.759Z,42.04
2023-03-01T15:23:07.707Z,41.21
2023-03-01T15:25:35.866Z,41.97
2023-03-01T15:28:04.290Z,43.05
2023-03-01T15:30:39.035Z,42.30
2023-03-01T15:33:35.174Z,41.54
2023-03-01T15:36:26.021Z,42.27
2023-03-01T15:38:56.511Z,41.49
2023-03-01T15:41:35.100Z,43.18
2023-03-01T15:44:17.356Z,43.44
2023-03-01T15:46:49.896Z,42.00
2023-03-01T15:49:46.477Z,41.84
2023-03-01T15:52:32.880Z,42.46
2023-03-01T15:55:03.752Z,43.25
2023-03-01T15:57:32.353Z,43.73
2023-03-01T16:00:02.315Z,43.56
2023-03-01T16:02:34.170Z,43.18
2023-03-01T16:05:02.568Z,42.95
2023-03-01T16:07:32.299Z,43.57
2023-03-01T16:10:02.204Z,44.00
2023-03-01T16:12:30.688Z,45.14
2023-03-01T16:14:59.003Z,46.29
2023-03-01T16:17:27.187Z,49.32
2023-03-01T16:19:56.840Z,45.23
2023-03-01T16:22:28.214Z,49.72
2023-03-01T16:24:58.035Z,49.01
2023-03-01T16:27:26.181Z,47.53
2023-03-01T16:29:54.268Z,46.56
2023-03-01T16:32:24.233Z,48.36
2023-03-01T16:34:52.460Z,48.43
2023-03-01T16:37:24.039Z,50.15
2023-03-01T16:39:52.560Z,50.89
2023-03-01T16:42:20.756Z,51.54
2023-03-01T16:44:48.709Z,51.73
2023-03-01T16:47:17.191Z,51.44
2023-03-01T16:49:45.529Z,51.85
2023-03-01T16:52:13.660Z,56.35
2023-03-01T16:54:44.940Z,54.19
2023-03-01T16:57:13.311Z,54.09
2023-03-01T16:59:42.033Z,54.99
2023-03-01T17:02:15.168Z,55.43
2023-03-01T17:04:43.305Z,55.76
2023-03-01T17:07:11.748Z,56.72
2023-03-01T17:09:39.787Z,56.71
2023-03-01T17:12:07.988Z,58.05
2023-03-01T17:14:36.639Z,58.77
2023-03-01T17:17:04.668Z,58.59
2023-03-01T17:19:33.178Z,57.48
2023-03-01T17:22:01.629Z,58.48
2023-03-01T17:24:33.308Z,59.89
2023-03-01T17:27:01.857Z,60.94
2023-03-01T17:29:30.057Z,60.71
2023-03-01T17:31:58.862Z,61.05
2023-03-01T17:34:27.971Z,59.63
2023-03-01T17:36:56.019Z,61.73
2023-03-01T17:39:29.349Z,62.89
2023-03-01T17:41:59.457Z,62.48
2023-03-01T17:44:27.667Z,63.34
2023-03-01T17:46:55.676Z,64.00
2023-03-01T17:49:24.149Z,64.04
2023-03-01T17:51:52.593Z,64.71
2023-03-01T17:54:21.607Z,64.72
2023-03-01T17:56:50.890Z,66.02
2023-03-01T17:59:19.463Z,67.23
2023-03-01T18:01:48.001Z,64.28
2023-03-01T18:04:18.600Z,65.19
2023-03-01T18:06:46.624Z,62.37
2023-03-01T18:09:15.114Z,62.45
2023-03-01T18:11:46.816Z,63.25
2023-03-01T18:14:15.914Z,63.16
2023-03-01T18:16:44.754Z,64.40
2023-03-01T18:19:13.396Z,64.58
2023-03-01T18:21:41.456Z,64.69
2023-03-01T18:24:09.873Z,66.15
2023-03-01T18:26:39.944Z,66.45
2023-03-01T18:29:08.498Z,67.29
2023-03-01T18:31:37.397Z,65.76
2023-03-01T18:34:05.387Z,68.50
2023-03-01T18:36:35.629Z,65.67
2023-03-01T18:39:07.706Z,70.21
2023-03-01T18:41:37.012Z,66.83
2023-03-01T18:44:05.968Z,65.67
2023-03-01T18:46:37.973Z,67.47
2023-03-01T18:49:07.713Z,67.40
2023-03-01T18:51:36.048Z,72.15
2023-03-01T18:54:04.575Z,70.20
2023-03-01T18:56:36.574Z,69.38
2023-03-01T18:59:06.226Z,67.85
2023-03-01T19:01:37.336Z,66.93
2023-03-01T19:04:08.186Z,66.20
2023-03-01T19:06:37.177Z,69.47
2023-03-01T19:09:07.384Z,70.36
2023-03-01T19:11:39.264Z,68.08
2023-03-01T19:14:08.826Z,71.80
2023-03-01T19:16:36.933Z,70.44
2023-03-01T19:19:06.304Z,67.44
2023-03-01T19:21:36.103Z,70.31
2023-03-01T19:24:04.748Z,71.87
2023-03-01T19:26:33.927Z,69.41
2023-03-01T19:29:03.794Z,74.10
2023-03-01T19:31:32.190Z,73.00
2023-03-01T19:34:15.997Z,75.10
2023-03-01T19:36:48.165Z,71.92
2023-03-01T19:39:16.374Z,69.20
2023-03-01T19:41:44.873Z,68.48
2023-03-01T19:44:13.336Z,68.72
2023-03-01T19:46:41.485Z,68.60
2023-03-01T19:49:09.525Z,69.46
2023-03-01T19:51:39.631Z,70.24
2023-03-01T19:54:10.054Z,72.30
2023-03-01T19:56:39.147Z,72.81
2023-03-01T19:59:07.223Z,76.83
2023-03-01T20:01:35.653Z,77.86
2023-03-01T20:04:04.989Z,75.85
2023-03-01T20:06:33.578Z,71.66
2023-03-01T20:09:18.936Z,74.64
2023-03-01T20:11:49.415Z,72.10
2023-03-01T20:14:18.149Z,70.48
2023-03-01T20:16:46.501Z,69.79
2023-03-01T20:19:14.909Z,69.15
2023-03-01T20:21:43.056Z,71.64
2023-03-01T20:24:11.292Z,71.51
2023-03-01T20:26:41.273Z,73.53
2023-03-01T20:29:09.781Z,73.01
2023-03-01T20:31:40.025Z,70.96
2023-03-01T20:34:08.818Z,69.78
2023-03-01T20:36:39.132Z,70.15
2023-03-01T20:39:07.961Z,71.01
2023-03-01T20:41:36.391Z,71.82
2023-03-01T20:44:06.881Z,72.21
2023-03-01T20:46:36.264Z,72.89
2023-03-01T20:49:05.388Z,73.39
2023-03-01T20:51:33.896Z,73.16
2023-03-01T20:54:01.999Z,72.63
2023-03-01T20:56:31.086Z,73.44
2023-03-01T20:59:04.749Z,73.58
2023-03-01T21:01:33.421Z,75.01
2023-03-01T21:04:02.168Z,75.94
2023-03-01T21:06:30.430Z,75.07
2023-03-01T21:08:59.023Z,74.21
2023-03-01T21:11:27.394Z,73.99
2023-03-01T21:13:56.264Z,73.11
2023-03-01T21:16:25.345Z,74.51
2023-03-01T21:18:54.762Z,75.27
2023-03-01T21:21:24.309Z,73.33
2023-03-01T21:23:54.584Z,73.92
2023-03-01T21:26:25.318Z,71.26
2023-03-01T21:28:59.387Z,72.10
2023-03-01T21:31:35.146Z,72.43
2023-03-01T21:34:05.981Z,74.48
2023-03-01T21:36:35.463Z,76.85
2023-03-01T21:39:05.784Z,73.22
2023-03-01T21:41:36.253Z,76.33
2023-03-01T21:44:06.996Z,71.48
2023-03-01T21:46:37.461Z,78.66
2023-03-01T21:49:07.518Z,75.75
2023-03-01T21:51:36.866Z,72.75
2023-03-01T21:54:06.083Z,72.29
2023-03-01T21:56:39.281Z,74.26
2023-03-01T21:59:29.224Z,76.50
2023-03-01T22:01:57.296Z,77.79
2023-03-01T22:04:26.002Z,75.37
2023-03-01T22:06:54.606Z,74.52
2023-03-01T22:09:23.852Z,71.95
2023-03-01T22:12:02.619Z,71.60
2023-03-01T22:14:31.811Z,71.70
2023-03-01T22:17:00.257Z,71.41
2023-03-01T22:19:28.905Z,71.77
2023-03-01T22:21:57.022Z,71.89
2023-03-01T22:24:25.978Z,77.37
2023-03-01T22:26:54.683Z,74.95
2023-03-01T22:29:25.934Z,77.05
2023-03-01T22:31:55.391Z,73.98
2023-03-01T22:34:23.669Z,72.65
2023-03-01T22:36:51.690Z,72.90
2023-03-01T22:39:21.575Z,75.74
2023-03-01T22:41:50.494Z,76.10
2023-03-01T22:44:22.444Z,76.63
2023-03-01T22:46:51.656Z,74.57
2023-03-01T22:49:20.297Z,77.57
2023-03-01T22:51:48.895Z,75.08
2023-03-01T22:54:18.929Z,77.14
2023-03-01T22:56:47.189Z,75.90
2023-03-01T22:59:19.153Z,76.98
2023-03-01T23:01:48.313Z,76.39
2023-03-01T23:04:17.790Z,77.88
2023-03-01T23:06:55.963Z,77.26
2023-03-01T23:09:30.972Z,75.84
2023-03-01T23:12:01.148Z,71.16
2023-03-01T23:14:31.866Z,69.48
2023-03-01T23:17:03.071Z,72.14
2023-03-01T23:19:32.248Z,69.88
2023-03-01T23:22:00.304Z,67.11
2023-03-01T23:24:32.082Z,66.63
2023-03-01T23:27:01.912Z,64.97
2023-03-01T23:29:30.628Z,63.69
2023-03-01T23:31:59.518Z,63.61
2023-03-01T23:34:28.410Z,65.12
2023-03-01T23:36:58.141Z,65.68
2023-03-01T23:39:26.560Z,62.86
2023-03-01T23:41:54.864Z,64.19
2023-03-01T23:44:23.494Z,64.29
2023-03-01T23:46:51.619Z,63.45
2023-03-01T23:49:22.583Z,63.57
2023-03-01T23:51:51.507Z,64.14
2023-03-01T23:54:22.240Z,64.06
2023-03-01T23:56:50.611Z,62.52
2023-03-01T23:59:22.159Z,64.25
